createdAt,value
2018-07-05T00:02:13.798Z,4.27
2018-07-05T00:05:01.052Z,4.10
2018-07-05T00:07:48.327Z,4.57
2018-07-05T00:10:35.648Z,3.73
2018-07-05T00:13:23.615Z,3.63
2018-07-05T00:16:10.875Z,3.70
2018-07-05T00:18:57.974Z,4.30
2018-07-05T00:21:45.339Z,4.50
2018-07-05T00:24:32.683Z,4.37
2018-07-05T00:27:19.976Z,4.03
2018-07-05T00:30:07.166Z,4.90
2018-07-05T00:32:54.271Z,4.47
2018-07-05T00:35:41.624Z,4.57
2018-07-05T00:38:28.880Z,4.60
2018-07-05T00:41:16.274Z,4.40
2018-07-05T00:44:03.683Z,4.47
2018-07-05T00:46:50.916Z,4.73
2018-07-05T00:49:38.314Z,4.53
2018-07-05T00:52:26.504Z,4.30
2018-07-05T00:55:14.500Z,5.13
2018-07-05T00:58:01.816Z,4.87
2018-07-05T01:00:49.240Z,4.77
2018-07-05T01:03:36.499Z,4.30
2018-07-05T01:06:23.930Z,4.23
2018-07-05T01:09:12.271Z,4.57
2018-07-05T01:11:53.573Z,4.20
2018-07-05T01:14:40.772Z,4.40
2018-07-05T01:17:28.061Z,4.20
2018-07-05T01:20:15.795Z,4.57
2018-07-05T01:23:03.187Z,4.80
2018-07-05T01:25:50.602Z,4.03
2018-07-05T01:28:37.738Z,4.63
2018-07-05T01:31:25.248Z,4.43
2018-07-05T01:34:12.459Z,4.30
2018-07-05T01:36:59.757Z,4.57
2018-07-05T01:39:47.240Z,4.47
2018-07-05T01:42:35.079Z,4.97
2018-07-05T01:45:22.260Z,4.67
2018-07-05T01:48:09.413Z,4.37
2018-07-05T01:50:56.551Z,4.10
2018-07-05T01:53:43.945Z,4.70
2018-07-05T01:56:31.944Z,5.20
2018-07-05T01:59:19.114Z,4.57
2018-07-05T02:02:06.499Z,5.33
2018-07-05T02:04:53.760Z,5.10
2018-07-05T02:07:41.206Z,5.60
2018-07-05T02:10:28.639Z,7.13
2018-07-05T02:13:16.237Z,5.70
2018-07-05T02:16:03.540Z,6.90
2018-07-05T02:18:45.034Z,5.40
2018-07-05T02:21:32.243Z,6.00
2018-07-05T02:24:19.446Z,6.00
2018-07-05T02:27:06.747Z,5.40
2018-07-05T02:29:54.277Z,5.50
2018-07-05T02:32:41.676Z,4.73
2018-07-05T02:35:29.133Z,5.53
2018-07-05T02:38:21.814Z,4.73
2018-07-05T02:41:09.057Z,5.77
2018-07-05T02:43:56.430Z,6.10
2018-07-05T02:46:43.728Z,6.27
2018-07-05T02:49:24.822Z,4.53
2018-07-05T02:52:12.085Z,5.60
2018-07-05T02:54:59.220Z,5.73
2018-07-05T02:57:47.458Z,5.50
2018-07-05T03:00:34.802Z,5.33
2018-07-05T03:03:22.063Z,6.23
2018-07-05T03:06:09.486Z,5.77
2018-07-05T03:08:56.706Z,6.43
2018-07-05T03:11:44.122Z,5.40
2018-07-05T03:14:31.316Z,5.37
2018-07-05T03:17:18.824Z,5.27
2018-07-05T03:20:06.047Z,5.07
2018-07-05T03:22:53.206Z,5.60
2018-07-05T03:25:40.869Z,5.23
2018-07-05T03:28:28.356Z,5.30
2018-07-05T03:31:15.639Z,4.70
2018-07-05T03:34:02.905Z,5.77
2018-07-05T03:36:50.324Z,4.90
2018-07-05T03:39:37.758Z,5.70
2018-07-05T03:42:25.915Z,4.73
2018-07-05T03:45:13.223Z,5.30
2018-07-05T03:47:54.415Z,4.90
2018-07-05T03:50:41.584Z,4.67
2018-07-05T03:53:28.845Z,3.67
2018-07-05T03:56:16.265Z,4.47
2018-07-05T03:59:03.793Z,4.00
2018-07-05T04:01:51.115Z,4.63
2018-07-05T04:04:38.227Z,4.23
2018-07-05T04:07:25.650Z,4.20
2018-07-05T04:10:12.873Z,4.47
2018-07-05T04:13:00.415Z,6.00
2018-07-05T04:15:41.699Z,4.10
2018-07-05T04:18:29.241Z,3.77
2018-07-05T04:21:16.647Z,3.90
2018-07-05T04:23:57.979Z,4.57
2018-07-05T04:26:45.186Z,3.90
2018-07-05T04:29:32.555Z,3.57
2018-07-05T04:32:13.859Z,4.13
2018-07-05T04:35:01.221Z,4.40
2018-07-05T04:37:48.566Z,3.77
2018-07-05T04:40:36.091Z,4.10
2018-07-05T04:43:23.674Z,4.00
2018-07-05T04:46:11.047Z,3.80
2018-07-05T04:48:52.308Z,4.10
2018-07-05T04:51:39.955Z,4.57
2018-07-05T04:54:27.197Z,3.00
2018-07-05T04:57:14.278Z,3.50
2018-07-05T05:00:01.841Z,4.07
2018-07-05T05:02:49.150Z,3.97
2018-07-05T05:05:36.504Z,4.23
2018-07-05T05:08:23.794Z,4.20
2018-07-05T05:11:11.267Z,3.83
2018-07-05T05:13:58.648Z,4.30
2018-07-05T05:16:45.816Z,3.53
2018-07-05T05:19:33.139Z,3.97
2018-07-05T05:22:20.646Z,4.20
2018-07-05T05:25:07.799Z,3.37
2018-07-05T05:27:55.241Z,3.60
2018-07-05T05:30:42.264Z,3.90
2018-07-05T05:33:29.458Z,4.13
2018-07-05T05:36:16.663Z,4.23
2018-07-05T05:39:05.383Z,3.73
2018-07-05T05:41:52.579Z,5.20
2018-07-05T05:44:39.866Z,4.80
2018-07-05T05:47:27.050Z,3.83
2018-07-05T05:50:14.444Z,4.23
2018-07-05T05:53:01.634Z,4.63
2018-07-05T05:55:49.189Z,4.17
2018-07-05T05:58:36.359Z,4.37
2018-07-05T06:01:23.678Z,4.10
2018-07-05T06:04:10.778Z,5.77
2018-07-05T06:06:58.330Z,6.13
2018-07-05T06:09:45.496Z,6.23
2018-07-05T06:12:32.785Z,6.30
2018-07-05T06:15:20.100Z,6.83
2018-07-05T06:18:07.599Z,6.67
2018-07-05T06:20:54.829Z,7.53
2018-07-05T06:23:42.280Z,6.57
2018-07-05T06:26:29.642Z,4.83
2018-07-05T06:29:17.026Z,4.20
2018-07-05T06:32:04.373Z,3.33
2018-07-05T06:34:51.747Z,4.20
2018-07-05T06:37:39.052Z,4.57
2018-07-05T06:40:20.306Z,3.23
2018-07-05T06:43:08.052Z,3.03
2018-07-05T06:45:55.302Z,3.60
2018-07-05T06:48:42.547Z,3.43
2018-07-05T06:51:29.880Z,3.50
2018-07-05T06:54:11.353Z,3.40
2018-07-05T06:56:58.520Z,3.60
2018-07-05T06:59:45.755Z,3.57
2018-07-05T07:02:33.908Z,3.70
2018-07-05T07:05:21.220Z,4.47
2018-07-05T07:08:08.886Z,4.03
2018-07-05T07:10:56.096Z,3.50
2018-07-05T07:13:43.456Z,4.60
2018-07-05T07:16:30.670Z,3.17
2018-07-05T07:19:18.536Z,3.93
2018-07-05T07:22:06.090Z,3.57
2018-07-05T07:24:53.585Z,3.70
2018-07-05T07:27:40.723Z,4.40
2018-07-05T07:30:28.142Z,4.13
2018-07-05T07:33:15.521Z,3.50
2018-07-05T07:36:03.018Z,2.80
2018-07-05T07:38:50.320Z,3.23
2018-07-05T07:41:37.708Z,3.40
2018-07-05T07:44:06.402Z,3.33
2018-07-05T07:46:35.068Z,3.40
2018-07-05T07:49:03.764Z,3.40
2018-07-05T07:51:32.440Z,3.50
2018-07-05T07:54:01.099Z,4.33
2018-07-05T07:56:29.821Z,3.70
2018-07-05T07:58:58.687Z,2.80
2018-07-05T08:01:27.248Z,3.30
2018-07-05T08:03:56.034Z,3.10
2018-07-05T08:06:24.724Z,2.90
2018-07-05T08:08:53.366Z,2.43
2018-07-05T08:11:21.965Z,2.20
2018-07-05T08:13:51.083Z,3.33
2018-07-05T08:16:19.759Z,2.60
2018-07-05T08:18:48.428Z,2.50
2018-07-05T08:21:17.489Z,3.00
2018-07-05T08:23:46.153Z,3.83
2018-07-05T08:26:14.905Z,3.23
2018-07-05T08:28:43.550Z,3.17
2018-07-05T08:31:12.220Z,2.57
2018-07-05T08:33:41.122Z,2.20
2018-07-05T08:36:09.632Z,2.10
2018-07-05T08:38:38.344Z,2.73
2018-07-05T08:41:06.979Z,2.87
2018-07-05T08:43:35.947Z,2.00
2018-07-05T08:46:04.528Z,2.17
2018-07-05T08:48:33.178Z,2.60
2018-07-05T08:51:01.831Z,2.40
2018-07-05T08:53:30.761Z,1.90
2018-07-05T08:55:59.248Z,2.77
2018-07-05T08:58:27.879Z,2.40
2018-07-05T09:00:56.541Z,1.87
2018-07-05T09:03:25.243Z,1.87
2018-07-05T09:05:53.909Z,1.90
2018-07-05T09:08:22.539Z,1.97
2018-07-05T09:10:51.220Z,1.83
2018-07-05T09:13:19.920Z,1.67
2018-07-05T09:15:48.555Z,1.80
2018-07-05T09:18:17.240Z,2.07
2018-07-05T09:20:45.806Z,1.80
2018-07-05T09:23:14.590Z,2.07
2018-07-05T09:25:43.229Z,2.20
2018-07-05T09:28:11.854Z,2.50
2018-07-05T09:30:40.460Z,1.83
2018-07-05T09:33:09.148Z,2.33
2018-07-05T09:35:37.824Z,2.10
2018-07-05T09:38:06.518Z,2.37
2018-07-05T09:40:35.208Z,1.97
2018-07-05T09:43:03.908Z,1.60
2018-07-05T09:45:32.527Z,2.43
2018-07-05T09:48:01.169Z,2.27
2018-07-05T09:50:29.844Z,2.03
2018-07-05T09:52:58.479Z,1.80
2018-07-05T09:55:27.094Z,2.47
2018-07-05T09:57:55.788Z,2.63
2018-07-05T10:00:29.592Z,2.27
2018-07-05T10:02:58.287Z,2.13
2018-07-05T10:05:26.991Z,2.40
2018-07-05T10:07:55.756Z,2.07
2018-07-05T10:10:24.711Z,2.60
2018-07-05T10:12:53.220Z,1.87
2018-07-05T10:15:21.888Z,2.37
2018-07-05T10:17:50.577Z,3.03
2018-07-05T10:20:19.343Z,2.83
2018-07-05T10:22:47.982Z,2.30
2018-07-05T10:25:16.647Z,2.13
2018-07-05T10:27:45.313Z,2.33
2018-07-05T10:30:32.591Z,2.40
2018-07-05T10:33:13.848Z,1.90
2018-07-05T10:35:42.440Z,2.73
2018-07-05T10:38:11.078Z,2.20
2018-07-05T10:40:58.179Z,2.30
2018-07-05T10:43:45.462Z,1.90
2018-07-05T10:46:32.661Z,2.37
2018-07-05T10:49:19.740Z,2.20
2018-07-05T10:52:07.402Z,2.07
2018-07-05T10:54:54.851Z,2.40
2018-07-05T10:57:42.102Z,1.90
2018-07-05T11:00:29.237Z,2.20
2018-07-05T11:03:16.511Z,2.80
2018-07-05T11:06:03.754Z,2.30
2018-07-05T11:08:51.281Z,2.80
2018-07-05T11:11:38.572Z,2.50
2018-07-05T11:14:25.831Z,2.60
2018-07-05T11:17:13.143Z,2.77
2018-07-05T11:20:00.435Z,2.43
2018-07-05T11:22:47.784Z,2.70
2018-07-05T11:25:34.956Z,3.17
2018-07-05T11:28:22.354Z,2.90
2018-07-05T11:31:09.818Z,3.17
2018-07-05T11:33:57.356Z,2.63
2018-07-05T11:36:45.331Z,2.70
2018-07-05T11:39:32.625Z,2.40
2018-07-05T11:42:19.878Z,2.27
2018-07-05T11:45:07.210Z,3.17
2018-07-05T11:47:54.472Z,2.60
2018-07-05T11:50:42.713Z,2.23
2018-07-05T11:53:29.991Z,2.43
2018-07-05T11:56:17.436Z,3.13
2018-07-05T11:59:04.664Z,2.67
2018-07-05T12:01:51.972Z,2.50
2018-07-05T12:04:39.287Z,2.60
2018-07-05T12:07:20.668Z,2.53
2018-07-05T12:10:07.930Z,2.10
2018-07-05T12:12:55.273Z,2.50
2018-07-05T12:15:42.447Z,2.00
2018-07-05T12:18:29.723Z,2.60
2018-07-05T12:21:17.087Z,2.00
2018-07-05T12:24:04.498Z,1.90
2018-07-05T12:26:51.698Z,2.60
2018-07-05T12:29:39.850Z,2.40
2018-07-05T12:32:27.291Z,2.80
2018-07-05T12:35:08.555Z,2.67
2018-07-05T12:37:55.662Z,2.40
2018-07-05T12:40:42.992Z,2.40
2018-07-05T12:43:30.319Z,2.60
2018-07-05T12:46:17.543Z,2.13
2018-07-05T12:49:04.699Z,2.57
2018-07-05T12:51:52.019Z,2.43
2018-07-05T12:54:39.347Z,2.27
2018-07-05T12:57:26.555Z,2.10
2018-07-05T13:00:13.892Z,2.87
2018-07-05T13:03:01.194Z,2.27
2018-07-05T13:05:48.480Z,2.27
2018-07-05T13:08:35.836Z,2.00
2018-07-05T13:11:23.278Z,5.10
2018-07-05T13:14:10.354Z,1.80
2018-07-05T13:16:57.639Z,3.03
2018-07-05T13:19:44.860Z,2.20
2018-07-05T13:22:32.411Z,2.40
2018-07-05T13:25:19.659Z,2.60
2018-07-05T13:28:06.953Z,2.27
2018-07-05T13:30:54.062Z,2.23
2018-07-05T13:33:41.336Z,2.03
2018-07-05T13:36:28.648Z,2.50
2018-07-05T13:39:09.974Z,2.20
2018-07-05T13:41:57.128Z,2.00
2018-07-05T13:44:44.626Z,2.03
2018-07-05T13:47:31.919Z,1.80
2018-07-05T13:50:19.271Z,2.20
2018-07-05T13:53:06.510Z,2.40
2018-07-05T13:55:53.848Z,2.37
2018-07-05T13:58:40.987Z,2.97
2018-07-05T14:01:28.501Z,2.20
2018-07-05T14:04:15.840Z,3.20
2018-07-05T14:07:03.293Z,2.50
2018-07-05T14:09:50.703Z,2.70
2018-07-05T14:12:37.817Z,2.43
2018-07-05T14:15:25.220Z,2.80
2018-07-05T14:18:12.700Z,3.03
2018-07-05T14:20:59.952Z,3.00
2018-07-05T14:23:47.465Z,2.30
2018-07-05T14:26:34.712Z,2.67
2018-07-05T14:29:22.039Z,2.10
2018-07-05T14:32:09.234Z,2.53
2018-07-05T14:34:56.599Z,2.70
2018-07-05T14:37:43.792Z,2.40
2018-07-05T14:40:31.193Z,2.23
2018-07-05T14:43:18.798Z,2.83
2018-07-05T14:46:06.093Z,3.00
2018-07-05T14:48:53.349Z,2.50
2018-07-05T14:51:40.514Z,2.30
2018-07-05T14:54:27.766Z,2.07
2018-07-05T14:57:14.996Z,2.17
2018-07-05T15:00:02.071Z,2.47
2018-07-05T15:02:49.251Z,3.17
2018-07-05T15:05:36.602Z,2.50
2018-07-05T15:08:24.042Z,2.70
2018-07-05T15:11:11.812Z,2.07
2018-07-05T15:13:58.947Z,2.40
2018-07-05T15:16:46.140Z,2.07
2018-07-05T15:19:33.435Z,2.33
2018-07-05T15:22:20.696Z,2.83
2018-07-05T15:25:08.143Z,2.00
2018-07-05T15:27:55.691Z,3.20
2018-07-05T15:30:43.290Z,2.60
2018-07-05T15:33:30.586Z,2.80
2018-07-05T15:36:17.731Z,2.23
2018-07-05T15:39:05.462Z,2.70
2018-07-05T15:41:52.783Z,2.30
2018-07-05T15:44:40.238Z,2.07
2018-07-05T15:47:21.519Z,2.23
2018-07-05T15:50:08.679Z,2.33
2018-07-05T15:52:56.198Z,2.43
2018-07-05T15:55:43.376Z,2.43
2018-07-05T15:58:30.568Z,2.10
2018-07-05T16:01:18.279Z,2.30
2018-07-05T16:04:05.485Z,2.70
2018-07-05T16:06:52.968Z,2.83
2018-07-05T16:09:40.316Z,2.67
2018-07-05T16:12:27.739Z,2.70
2018-07-05T16:15:15.034Z,2.63
2018-07-05T16:18:02.244Z,2.60
2018-07-05T16:20:49.717Z,2.60
2018-07-05T16:23:36.807Z,2.63
2018-07-05T16:26:24.074Z,2.30
2018-07-05T16:29:11.371Z,2.47
2018-07-05T16:31:58.577Z,2.43
2018-07-05T16:34:45.731Z,2.10
2018-07-05T16:37:33.021Z,2.30
2018-07-05T16:40:20.323Z,2.80
2018-07-05T16:43:07.498Z,2.40
2018-07-05T16:45:54.641Z,2.57
2018-07-05T16:48:41.950Z,2.50
2018-07-05T16:51:29.295Z,2.67
2018-07-05T16:54:16.504Z,2.47
2018-07-05T16:57:03.817Z,2.20
2018-07-05T16:59:51.075Z,2.33
2018-07-05T17:02:38.076Z,2.50
2018-07-05T17:05:25.547Z,2.20
2018-07-05T17:08:06.936Z,2.70
2018-07-05T17:10:54.124Z,2.10
2018-07-05T17:13:41.295Z,2.13
2018-07-05T17:16:28.517Z,2.63
2018-07-05T17:19:09.824Z,2.43
2018-07-05T17:21:56.864Z,1.70
2018-07-05T17:24:38.337Z,1.93
2018-07-05T17:27:25.475Z,2.20
2018-07-05T17:30:12.698Z,1.80
2018-07-05T17:32:59.890Z,1.93
2018-07-05T17:35:47.114Z,1.60
2018-07-05T17:38:34.487Z,1.30
2018-07-05T17:41:15.876Z,1.60
2018-07-05T17:44:03.072Z,1.37
2018-07-05T17:46:50.246Z,1.80
2018-07-05T17:49:37.679Z,1.93
2018-07-05T17:52:24.907Z,1.73
2018-07-05T17:55:12.258Z,1.53
2018-07-05T17:57:59.525Z,1.70
2018-07-05T18:00:46.813Z,1.30
2018-07-05T18:03:34.152Z,1.10
2018-07-05T18:06:21.564Z,1.50
2018-07-05T18:09:08.874Z,1.87
2018-07-05T18:11:50.337Z,1.63
2018-07-05T18:14:37.710Z,1.20
2018-07-05T18:17:24.956Z,1.50
2018-07-05T18:20:12.234Z,1.40
2018-07-05T18:22:59.647Z,1.60
2018-07-05T18:25:46.910Z,1.30
2018-07-05T18:28:34.290Z,1.20
2018-07-05T18:31:21.388Z,1.23
2018-07-05T18:34:08.642Z,1.47
2018-07-05T18:36:56.012Z,1.43
2018-07-05T18:39:43.083Z,1.20
2018-07-05T18:42:30.503Z,1.50
2018-07-05T18:45:17.704Z,1.20
2018-07-05T18:47:59.205Z,1.10
2018-07-05T18:50:46.501Z,1.40
2018-07-05T18:53:33.860Z,1.43
2018-07-05T18:56:21.146Z,1.27
2018-07-05T18:59:08.457Z,1.30
2018-07-05T19:01:55.916Z,1.47
2018-07-05T19:04:43.359Z,1.50
2018-07-05T19:07:24.577Z,1.63
2018-07-05T19:10:05.911Z,1.57
2018-07-05T19:12:47.110Z,1.57
2018-07-05T19:15:34.412Z,1.37
2018-07-05T19:18:21.694Z,1.60
2018-07-05T19:21:09.118Z,1.67
2018-07-05T19:23:56.480Z,6.40
2018-07-05T19:26:37.709Z,2.80
2018-07-05T19:29:24.871Z,2.70
2018-07-05T19:32:12.330Z,2.73
2018-07-05T19:34:59.415Z,2.33
2018-07-05T19:37:46.696Z,3.20
2018-07-05T19:40:34.135Z,1.63
2018-07-05T19:43:21.440Z,2.23
2018-07-05T19:46:08.673Z,1.60
2018-07-05T19:48:49.973Z,2.17
2018-07-05T19:51:37.150Z,1.63
2018-07-05T19:54:24.412Z,2.27
2018-07-05T19:57:11.900Z,1.73
2018-07-05T19:59:59.003Z,1.87
2018-07-05T20:02:46.435Z,2.23
2018-07-05T20:05:33.726Z,1.60
2018-07-05T20:08:20.979Z,1.70
2018-07-05T20:11:08.258Z,1.60
2018-07-05T20:13:55.528Z,2.00
2018-07-05T20:16:42.678Z,2.37
2018-07-05T20:19:30.030Z,2.50
2018-07-05T20:22:19.830Z,1.93
2018-07-05T20:25:06.935Z,2.40
2018-07-05T20:27:54.228Z,2.63
2018-07-05T20:30:41.620Z,2.40
2018-07-05T20:33:29.111Z,2.70
2018-07-05T20:36:16.488Z,1.50
2018-07-05T20:39:04.880Z,2.63
2018-07-05T20:41:52.300Z,2.20
2018-07-05T20:44:39.558Z,3.40
2018-07-05T20:47:26.887Z,2.00
2018-07-05T20:50:14.276Z,1.60
2018-07-05T20:53:01.662Z,2.20
2018-07-05T20:55:49.109Z,1.70
2018-07-05T20:58:36.301Z,2.20
2018-07-05T21:01:23.658Z,2.67
2018-07-05T21:04:10.686Z,2.37
2018-07-05T21:06:52.232Z,2.20
2018-07-05T21:09:39.780Z,2.13
2018-07-05T21:12:26.904Z,2.13
2018-07-05T21:15:14.094Z,3.13
2018-07-05T21:18:01.545Z,2.20
2018-07-05T21:20:48.875Z,2.50
2018-07-05T21:23:36.136Z,2.87
2018-07-05T21:26:23.422Z,2.77
2018-07-05T21:29:10.814Z,3.60
2018-07-05T21:31:52.061Z,3.20
2018-07-05T21:34:39.000Z,2.50
2018-07-05T21:37:26.279Z,2.20
2018-07-05T21:40:13.755Z,2.90
2018-07-05T21:43:01.088Z,2.70
2018-07-05T21:45:48.379Z,3.00
2018-07-05T21:48:35.653Z,3.07
2018-07-05T21:51:23.221Z,3.20
2018-07-05T21:54:10.578Z,3.77
2018-07-05T21:56:58.008Z,3.20
2018-07-05T21:59:39.431Z,3.90
2018-07-05T22:02:26.828Z,3.17
2018-07-05T22:05:14.096Z,3.47
2018-07-05T22:08:01.570Z,2.53
2018-07-05T22:10:48.848Z,3.23
2018-07-05T22:13:36.207Z,3.37
2018-07-05T22:16:23.695Z,3.07
2018-07-05T22:19:16.196Z,3.10
2018-07-05T22:22:09.014Z,2.30
2018-07-05T22:25:01.720Z,3.40
2018-07-05T22:27:54.379Z,2.97
2018-07-05T22:30:47.367Z,3.27
2018-07-05T22:33:34.603Z,2.90
2018-07-05T22:36:21.942Z,3.37
2018-07-05T22:39:09.272Z,2.73
2018-07-05T22:41:56.556Z,3.40
2018-07-05T22:44:43.984Z,3.40
2018-07-05T22:47:31.364Z,2.80
2018-07-05T22:50:18.536Z,3.30
2018-07-05T22:56:03.160Z,3.13
2018-07-05T23:02:40.823Z,3.37
2018-07-05T23:05:27.867Z,2.63
2018-07-05T23:08:15.056Z,2.80
2018-07-05T23:11:02.411Z,2.83
2018-07-05T23:13:43.689Z,2.97
2018-07-05T23:16:30.817Z,2.73
2018-07-05T23:19:18.042Z,2.67
2018-07-05T23:22:05.388Z,2.20
2018-07-05T23:24:52.624Z,2.83
2018-07-05T23:27:40.041Z,2.87
2018-07-05T23:30:27.722Z,3.00
2018-07-05T23:33:14.824Z,2.67
2018-07-05T23:36:01.958Z,2.70
2018-07-05T23:38:49.276Z,3.03
2018-07-05T23:41:36.599Z,2.20
2018-07-05T23:44:23.786Z,2.33
2018-07-05T23:47:05.077Z,2.93
2018-07-05T23:49:52.121Z,2.53
2018-07-05T23:52:39.374Z,1.93
2018-07-05T23:55:26.443Z,2.43
2018-07-05T23:58:13.628Z,2.50
